Terminal Aerodrome Forecast
Issued by NWS

Home | Current Version | Previous Version | Text Only | Print | Product List | Glossary On
Versions: 1 2 3 4 5 6 7 8 9 10 11 12 13 14 15 16 17 18
000
FTUS43 KGLD 160536
TAFMCK
TAF
KMCK 160536Z 1606/1706 28012G16KT 6SM -TSRA SCT070CB
      TEMPO 1606/1607 5SM TSRA
     FM160800 36007KT P6SM VCTS SCT045CB OVC090
     FM160900 36007KT P6SM SCT035 OVC110
     FM161500 34017KT P6SM BKN060
     FM162300 34012KT P6SM SCT050 BKN070=

USA.gov is the U.S. government's official web portal to all federal, state and local government web resources and services.